Airfield :







YOU CAN JOIN US ON...

 
LOGIN :

Register | Disclaimer

   EN    FR    IT 

 









Legend :    VFR   Marginal VFR   IFR   Intensive IFR   Very Intensive IFR
Visi :
Ceiling :
>= 8 km
>= 3000ft
5 to 8 km
1000 to 3000 ft
1500m to 5 km
500 to 1000 ft
800 to 1500m
200 to 500 ft
< 800m
< 200 ft
Symbols :   Thunderstorms  Fog  Heavy snow  Heavy precipitations  Wind > 20 kt






- Airport Elevation : 6 ft
- IATA code : AEY


BIAR - Akureyri

CURRENT METAR :
  • 060600Z 12003KT 090V180 9999 BKN027 OVC036 M01/M02 Q0971 RMK WIND VADLAHEIDI 11128KT

EXPIRED METARs :
  • 060500Z 00000KT 9999 OVC026 M00/M02 Q0972 RMK WIND VADLAHEIDI 12516KT
  • 060400Z VRB02KT 9999 OVC028 M00/M01 Q0973 RMK WIND VADLAHEIDI 12216KT

TAF TAF BIAR
Valid from the 06 at 06:00 until the 07 at 06:00 UTC


060454Z 0606/0706 17007KT 9999 BKN030 TX06/0612Z TNM01/0703Z
BECMG 0613/0615 22030G45KT SCT040
TEMPO 0614/0618 SHRA BKN018
TEMPO 0615/0706 22040G55KT



MET'MAP, your aeronautical weather chart ! - Copyright ORBIFLY December 2007 - Disclaimer

ORBIFLY MET'MAP TEAM :

Programming & Development : Alexandra Zaïnal
Concept & original design : Baudouin d'Aumeries
Assistance for programming : Marc-Olivier Méhu
Technical & hardware support : Manuel Goepfert

Contact : metmap@orbifly.com




SOURCES & CREDITS :

   NOAA